Time;durP1;ratioP1;P1;durP2;ratioP2;P2;SDS_P1;SDS_P2;PMS_P1;PMS_P2;Temp;Humidity;BMP_temperature;BMP_pressure;BME280_temperature;BME280_humidity;BME280_pressure;Samples;Min_cycle;Max_cycle;Signal;HPM_P1;HPM_P2
2023/03/27 00:02:07;;;;;;;4.45;3.22;;;;;;;6.98;86.77;97203.59;7385376;19;19931;-84
2023/03/27 00:04:34;;;;;;;5.47;2.95;;;;;;;7.04;86.60;97212.66;7385087;19;20455;-83
2023/03/27 00:07:02;;;;;;;3.08;2.78;;;;;;;6.99;87.11;97215.75;7390817;19;20491;-83
2023/03/27 00:09:31;;;;;;;3.60;3.30;;;;;;;7.00;87.34;97212.16;7389728;19;19919;-84
2023/03/27 00:11:59;;;;;;;2.65;2.45;;;;;;;7.18;86.43;97214.63;7391270;19;19949;-83
2023/03/27 00:14:26;;;;;;;3.42;3.13;;;;;;;7.01;87.38;97226.13;7388303;19;19925;-84
2023/03/27 00:16:53;;;;;;;3.60;3.30;;;;;;;7.19;86.79;97231.25;7392090;19;19915;-84
2023/03/27 00:19:20;;;;;;;2.65;2.45;;;;;;;7.02;87.25;97230.38;7384584;19;19974;-83
2023/03/27 00:21:47;;;;;;;2.85;2.53;;;;;;;7.02;87.28;97231.19;7388580;19;19922;-80
2023/03/27 00:24:14;;;;;;;2.53;2.15;;;;;;;7.08;86.85;97237.63;7384042;19;19960;-83
2023/03/27 00:26:41;;;;;;;3.25;2.55;;;;;;;6.81;87.08;97233.47;7390508;19;19926;-86
2023/03/27 00:29:09;;;;;;;3.10;2.80;;;;;;;6.94;86.98;97248.78;7389242;19;19943;-85
2023/03/27 00:31:36;;;;;;;3.08;2.15;;;;;;;6.82;86.95;97240.38;7399365;19;19927;-83
2023/03/27 00:34:02;;;;;;;3.78;2.75;;;;;;;6.77;87.37;97248.75;7401031;19;19918;-86
2023/03/27 00:36:30;;;;;;;2.53;2.30;;;;;;;6.76;87.26;97251.50;7387349;19;19982;-83
2023/03/27 00:38:57;;;;;;;3.75;2.47;;;;;;;6.70;87.59;97262.66;7392480;19;19929;-84
2023/03/27 00:41:23;;;;;;;2.95;2.75;;;;;;;6.71;86.78;97265.13;7385260;19;19937;-85
2023/03/27 00:43:52;;;;;;;4.15;2.88;;;;;;;6.80;86.70;97273.88;7392353;19;19960;-86
2023/03/27 00:46:33;;;;;;;2.83;2.25;;;;;;;6.73;86.79;97276.31;7385687;19;19917;-83
2023/03/27 00:49:03;;;;;;;3.20;2.05;;;;;;;6.75;86.48;97276.97;7392851;19;19923;-83
2023/03/27 00:51:30;;;;;;;2.25;1.90;;;;;;;6.72;86.37;97285.19;7386581;19;19915;-85
2023/03/27 00:53:57;;;;;;;2.53;2.33;;;;;;;6.52;85.54;97294.28;7387633;19;19918;-82
2023/03/27 00:56:25;;;;;;;1.42;1.17;;;;;;;6.59;85.08;97298.75;7387634;19;19910;-84
2023/03/27 00:58:57;;;;;;;2.65;1.58;;;;;;;6.32;84.93;97307.66;7390528;19;19925;-84
2023/03/27 01:01:27;;;;;;;1.20;1.10;;;;;;;6.28;84.35;97311.56;7383459;19;19919;-81
2023/03/27 01:03:55;;;;;;;2.55;2.30;;;;;;;6.22;83.80;97314.00;7395939;19;21175;-83
2023/03/27 01:06:22;;;;;;;1.98;1.88;;;;;;;6.20;83.84;97306.25;7384382;19;19918;-82
2023/03/27 01:08:49;;;;;;;1.50;1.35;;;;;;;6.06;83.36;97314.69;7386799;19;20333;-83
2023/03/27 01:11:49;;;;;;;2.17;1.30;;;;;;;6.02;83.06;97322.03;7384394;19;19934;-86
2023/03/27 01:14:25;;;;;;;;;;;;;;;6.08;83.43;97331.94;7390255;19;19935;-83
2023/03/27 01:17:05;;;;;;;1.83;1.73;;;;;;;5.94;83.41;97329.84;7398293;19;19918;-83
2023/03/27 01:20:09;;;;;;;1.77;1.67;;;;;;;5.98;83.81;97344.34;7389825;19;19919;-87
2023/03/27 01:22:53;;;;;;;1.52;1.42;;;;;;;5.76;83.44;97350.84;7392604;19;19998;-85
2023/03/27 01:25:43;;;;;;;1.33;1.23;;;;;;;5.73;83.32;97359.84;7383065;19;19922;-82
2023/03/27 01:28:21;;;;;;;1.85;1.55;;;;;;;5.86;83.29;97363.88;7382864;19;19922;-81
2023/03/27 01:31:01;;;;;;;1.52;1.40;;;;;;;6.06;83.31;97368.03;7391639;19;20578;-86
2023/03/27 01:33:40;;;;;;;2.90;1.70;;;;;;;5.97;83.15;97379.44;7387610;19;19914;-85
2023/03/27 01:36:18;;;;;;;1.90;1.80;;;;;;;6.04;82.51;97383.09;7388069;19;19925;-85
2023/03/27 01:39:04;;;;;;;2.75;2.47;;;;;;;5.77;82.02;97380.56;7387310;19;19915;-83
2023/03/27 01:41:41;;;;;;;3.20;2.40;;;;;;;5.55;82.14;97398.34;7384684;19;19915;-82
2023/03/27 01:44:37;;;;;;;3.20;2.30;;;;;;;5.71;82.18;97393.28;7386463;19;19938;-82
2023/03/27 01:47:32;;;;;;;3.13;1.73;;;;;;;5.68;82.09;97408.50;7382940;19;19914;-85
2023/03/27 01:50:26;;;;;;;4.10;1.83;;;;;;;5.44;82.10;97415.13;7391097;19;19914;-82
2023/03/27 01:52:58;;;;;;;2.47;2.05;;;;;;;5.56;81.86;97425.44;7394481;19;19982;-83
2023/03/27 01:55:29;;;;;;;3.47;2.53;;;;;;;5.50;82.29;97438.16;7387955;19;19925;-83
2023/03/27 01:58:02;;;;;;;3.35;3.00;;;;;;;5.27;82.34;97440.34;7390243;19;19919;-82
2023/03/27 02:00:31;;;;;;;4.20;2.33;;;;;;;5.37;82.84;97448.19;7387455;19;19998;-88
2023/03/27 02:03:23;;;;;;;2.25;1.98;;;;;;;5.46;82.37;97449.91;7392795;19;19919;-84
2023/03/27 02:05:55;;;;;;;5.75;3.92;;;;;;;5.22;82.71;97455.69;7388333;19;19978;-82
2023/03/27 02:08:28;;;;;;;3.40;2.30;;;;;;;5.43;82.42;97470.38;7385884;19;19933;-80
2023/03/27 02:11:05;;;;;;;4.03;2.42;;;;;;;5.38;83.03;97477.84;7392069;19;19921;-82
2023/03/27 02:13:52;;;;;;;3.20;1.92;;;;;;;5.39;83.13;97479.50;7390504;19;19942;-84
2023/03/27 02:16:22;;;;;;;3.70;2.55;;;;;;;5.35;83.30;97480.78;7382105;19;20351;-84
2023/03/27 02:18:55;;;;;;;2.85;2.42;;;;;;;5.54;83.15;97490.34;7392550;19;20420;-88
2023/03/27 02:21:22;;;;;;;2.85;2.10;;;;;;;5.47;83.54;97492.72;7389314;19;19988;-82
2023/03/27 02:23:50;;;;;;;4.15;2.15;;;;;;;5.39;84.13;97500.47;7392000;19;19936;-84
2023/03/27 02:26:17;;;;;;;2.58;2.28;;;;;;;5.51;83.73;97504.56;7382760;19;20376;-82
2023/03/27 02:28:56;;;;;;;4.18;2.55;;;;;;;5.37;83.51;97510.28;7391683;19;19922;-83
2023/03/27 02:31:42;;;;;;;3.05;2.75;;;;;;;5.39;83.39;97527.53;7388229;19;19929;-86
2023/03/27 02:34:22;;;;;;;3.28;2.08;;;;;;;5.31;83.75;97527.41;7381577;19;19914;-83
2023/03/27 02:37:08;;;;;;;2.92;1.92;;;;;;;5.47;83.44;97529.44;7396266;19;20272;-86
2023/03/27 02:40:32;;;;;;;2.80;2.20;;;;;;;5.33;84.18;97546.47;7393354;19;19991;-82
2023/03/27 02:43:41;;;;;;;2.88;2.30;;;;;;;5.19;84.48;97553.00;7380785;19;19923;-86
2023/03/27 02:46:25;;;;;;;4.07;3.10;;;;;;;5.37;84.13;97552.25;7383042;19;19914;-83
2023/03/27 02:48:55;;;;;;;3.53;2.42;;;;;;;5.16;84.61;97563.78;7387905;19;19918;-83
2023/03/27 02:51:40;;;;;;;5.97;3.03;;;;;;;5.39;84.16;97571.31;7393843;19;19939;-84
2023/03/27 02:54:14;;;;;;;4.70;2.80;;;;;;;5.24;84.56;97576.19;7393338;19;19947;-81
2023/03/27 02:56:45;;;;;;;5.60;3.55;;;;;;;5.02;84.65;97586.00;7387049;19;19921;-82
2023/03/27 02:59:49;;;;;;;8.45;4.32;;;;;;;4.98;84.15;97591.69;7388308;19;21616;-82
2023/03/27 03:02:23;;;;;;;8.77;4.68;;;;;;;5.03;84.41;97603.41;7386265;19;19978;-82
2023/03/27 03:05:02;;;;;;;7.18;4.97;;;;;;;4.98;84.33;97610.03;7389124;19;20286;-86
2023/03/27 03:07:37;;;;;;;9.40;3.85;;;;;;;5.07;83.92;97617.06;7389261;19;19915;-83
2023/03/27 03:10:07;;;;;;;5.35;3.58;;;;;;;5.01;84.17;97628.09;7390491;19;19914;-85
2023/03/27 03:12:35;;;;;;;6.32;3.83;;;;;;;4.80;83.69;97631.69;7386562;19;19922;-83
2023/03/27 03:15:02;;;;;;;6.82;4.13;;;;;;;4.79;84.24;97648.38;7392770;19;20517;-85
2023/03/27 03:17:29;;;;;;;10.60;3.92;;;;;;;4.85;84.44;97652.25;7390568;19;19925;-84
2023/03/27 03:19:56;;;;;;;7.60;3.83;;;;;;;4.64;84.63;97656.78;7398167;19;20260;-84
2023/03/27 03:22:25;;;;;;;6.57;3.67;;;;;;;4.67;84.64;97659.94;7387825;19;20191;-85
2023/03/27 03:24:53;;;;;;;9.70;3.78;;;;;;;4.81;84.05;97667.41;7396020;19;19921;-86
2023/03/27 03:27:24;;;;;;;5.40;4.68;;;;;;;4.66;83.93;97668.78;7396428;19;20411;-84
2023/03/27 03:29:58;;;;;;;8.57;3.80;;;;;;;4.40;83.37;97681.56;7393994;19;19922;-83
2023/03/27 03:32:26;;;;;;;9.27;3.65;;;;;;;4.48;82.94;97689.56;7388883;19;19915;-82
2023/03/27 03:34:55;;;;;;;7.65;3.33;;;;;;;4.34;82.96;97700.41;7394983;19;19959;-79
2023/03/27 03:37:27;;;;;;;7.40;2.97;;;;;;;4.25;83.04;97701.22;7391230;19;19966;-83
2023/03/27 03:39:56;;;;;;;6.10;3.03;;;;;;;4.09;83.36;97707.75;7393586;19;19922;-83
2023/03/27 03:42:23;;;;;;;4.10;2.85;;;;;;;4.06;83.53;97712.44;7389051;19;20341;-85
2023/03/27 03:44:52;;;;;;;4.53;2.75;;;;;;;4.23;83.90;97719.66;7394014;19;19934;-85
2023/03/27 03:47:21;;;;;;;3.95;3.00;;;;;;;4.28;83.64;97722.72;7390144;19;19923;-83
2023/03/27 03:49:48;;;;;;;6.10;3.05;;;;;;;4.39;83.72;97730.47;7396609;19;19919;-84
2023/03/27 03:52:15;;;;;;;5.38;2.70;;;;;;;4.46;83.47;97745.66;7390399;19;21658;-89
2023/03/27 03:54:43;;;;;;;8.68;3.83;;;;;;;4.38;83.80;97739.28;7396106;19;19939;-86
2023/03/27 03:57:12;;;;;;;4.85;2.90;;;;;;;4.51;83.72;97757.41;7391932;19;19999;-85
2023/03/27 03:59:40;;;;;;;6.75;3.05;;;;;;;4.50;83.83;97765.38;7400937;19;19953;-87
2023/03/27 04:02:37;;;;;;;5.78;2.78;;;;;;;4.55;83.72;97765.81;7393239;19;20292;-86
2023/03/27 04:05:08;;;;;;;7.07;3.63;;;;;;;4.49;83.82;97766.34;7402164;19;19990;-83
2023/03/27 04:07:38;;;;;;;7.47;3.97;;;;;;;4.56;83.74;97783.19;7402348;19;19941;-87
2023/03/27 04:10:17;;;;;;;7.35;4.72;;;;;;;4.65;83.59;97787.63;7398238;19;19942;-89
2023/03/27 04:12:46;;;;;;;7.15;4.45;;;;;;;4.40;83.63;97800.22;7397606;19;20538;-86
2023/03/27 04:15:17;;;;;;;13.05;5.13;;;;;;;4.24;83.77;97810.34;7395983;19;19915;-86
2023/03/27 04:18:08;;;;;;;10.43;5.07;;;;;;;3.96;83.34;97830.16;7394432;19;20272;-84
2023/03/27 04:20:37;;;;;;;8.10;4.72;;;;;;;3.89;83.17;97827.19;7397308;19;19940;-84
2023/03/27 04:23:07;;;;;;;;;;;;;;;3.92;83.17;97832.22;7397728;19;20376;-86
2023/03/27 04:25:36;;;;;;;10.65;6.50;;;;;;;4.06;82.83;97833.66;7396812;19;20749;-84
2023/03/27 04:28:04;;;;;;;13.48;5.97;;;;;;;4.05;83.01;97842.47;7400992;19;19922;-84
2023/03/27 04:30:42;;;;;;;6.75;4.13;;;;;;;4.13;82.74;97855.75;7395352;19;19920;-87
2023/03/27 04:33:45;;;;;;;14.50;5.10;;;;;;;4.18;82.38;97864.03;7405152;19;19915;-87
2023/03/27 04:36:38;;;;;;;6.88;4.55;;;;;;;4.18;82.20;97868.44;7409340;19;19929;-85
2023/03/27 04:39:10;;;;;;;8.40;4.47;;;;;;;4.15;82.48;97884.41;7408974;19;19929;-87
2023/03/27 04:41:37;;;;;;;9.50;4.28;;;;;;;4.03;82.53;97885.41;7389500;19;19934;-87
2023/03/27 04:44:05;;;;;;;8.90;4.75;;;;;;;4.02;82.75;97892.44;7397427;19;20266;-82
2023/03/27 04:46:33;;;;;;;9.60;3.70;;;;;;;3.83;82.21;97900.16;7390731;19;20357;-87
2023/03/27 04:49:06;;;;;;;8.40;4.40;;;;;;;3.89;82.16;97899.66;7398420;19;20336;-82
2023/03/27 04:51:50;;;;;;;9.20;3.55;;;;;;;3.83;81.80;97906.22;7398806;19;19915;-87
2023/03/27 04:54:18;;;;;;;6.55;3.13;;;;;;;3.77;81.82;97916.38;7391213;19;19918;-84
2023/03/27 04:56:45;;;;;;;12.25;4.47;;;;;;;3.67;80.96;97921.50;7389802;19;19922;-87
2023/03/27 04:59:14;;;;;;;10.20;3.65;;;;;;;3.73;81.55;97936.69;7395671;19;19943;-86
2023/03/27 05:01:45;;;;;;;5.72;3.50;;;;;;;3.78;81.54;97941.56;7400623;19;19910;-85
2023/03/27 05:04:20;;;;;;;11.85;3.85;;;;;;;3.64;81.36;97945.28;7384329;19;19939;-86
2023/03/27 05:07:03;;;;;;;5.50;3.50;;;;;;;3.46;81.32;97953.63;7409165;19;19918;-86
2023/03/27 05:09:30;;;;;;;11.93;4.38;;;;;;;3.74;81.07;97952.28;7413901;19;19914;-89
2023/03/27 05:11:57;;;;;;;8.80;3.65;;;;;;;3.49;80.65;97953.38;7412702;19;19948;-85
2023/03/27 05:14:25;;;;;;;7.25;3.22;;;;;;;3.63;81.04;97956.69;7415261;19;19923;-89
2023/03/27 05:16:52;;;;;;;10.50;3.17;;;;;;;3.56;80.50;97963.38;7408552;19;19939;-84
2023/03/27 05:19:20;;;;;;;8.98;3.05;;;;;;;3.50;80.70;97977.75;7387444;19;19915;-84
2023/03/27 05:21:55;;;;;;;7.95;3.97;;;;;;;3.36;79.74;97996.31;7386898;19;19925;-82
2023/03/27 05:24:22;;;;;;;6.22;3.30;;;;;;;3.26;80.14;98007.47;7383863;19;19919;-83
2023/03/27 05:26:49;;;;;;;9.70;3.88;;;;;;;3.28;80.22;98010.00;7393172;19;19910;-84
2023/03/27 05:29:16;;;;;;;7.10;2.95;;;;;;;3.39;79.85;98020.44;7388801;19;19929;-88
2023/03/27 05:31:45;;;;;;;6.13;3.13;;;;;;;3.01;79.48;98029.47;7386206;19;19919;-81
2023/03/27 05:34:33;;;;;;;9.52;2.78;;;;;;;3.23;80.02;98026.03;7386390;19;20631;-84
2023/03/27 05:37:04;;;;;;;;;;;;;;;3.37;79.38;98045.91;7395291;19;19970;-88
2023/03/27 05:39:37;;;;;;;5.30;2.40;;;;;;;3.02;79.47;98043.34;7371657;19;19919;-85
2023/03/27 05:42:07;;;;;;;8.02;2.80;;;;;;;3.10;78.96;98059.28;7389292;19;19929;-83
2023/03/27 05:44:34;;;;;;;5.45;2.40;;;;;;;3.28;78.44;98060.50;7386433;19;19914;-86
2023/03/27 05:47:02;;;;;;;8.77;3.20;;;;;;;3.37;78.39;98060.72;7394409;19;19974;-87
2023/03/27 05:49:30;;;;;;;4.45;3.42;;;;;;;3.45;78.73;98068.81;7390365;19;20384;-84
2023/03/27 05:52:08;;;;;;;7.13;2.83;;;;;;;3.23;77.97;98077.47;7395384;19;19951;-84
2023/03/27 05:54:35;;;;;;;7.45;2.45;;;;;;;3.32;78.42;98081.16;7378578;19;19914;-84
2023/03/27 05:57:06;;;;;;;7.20;3.40;;;;;;;3.44;77.83;98086.28;7387762;19;19918;-84
2023/03/27 05:59:34;;;;;;;6.47;2.67;;;;;;;3.26;78.10;98088.53;7385221;19;19918;-84
2023/03/27 06:02:19;;;;;;;5.95;2.45;;;;;;;3.22;77.79;98097.56;7385704;19;19931;-85
2023/03/27 06:04:55;;;;;;;9.73;2.67;;;;;;;3.44;77.22;98106.38;7393447;19;20365;-84
2023/03/27 06:07:49;;;;;;;5.63;2.40;;;;;;;3.38;76.62;98114.72;7392165;19;19921;-85
2023/03/27 06:10:19;;;;;;;6.80;4.43;;;;;;;3.38;75.97;98118.16;7394818;19;19919;-85
2023/03/27 06:13:23;;;;;;;7.07;2.42;;;;;;;3.29;76.52;98124.06;7387130;19;19930;-87
2023/03/27 06:15:56;;;;;;;7.50;2.47;;;;;;;3.23;75.86;98133.22;7388765;19;21120;-85
2023/03/27 06:18:43;;;;;;;4.15;2.92;;;;;;;3.10;75.76;98134.25;7381960;19;20411;-84
2023/03/27 06:21:13;;;;;;;5.60;2.65;;;;;;;3.37;75.84;98149.63;7396525;19;19922;-84
2023/03/27 06:23:41;;;;;;;4.68;2.13;;;;;;;3.40;76.46;98149.44;7394722;19;19915;-86
2023/03/27 06:26:14;;;;;;;5.07;2.55;;;;;;;3.50;75.97;98161.69;7396139;19;19911;-82
2023/03/27 06:28:42;;;;;;;5.32;2.20;;;;;;;3.36;75.83;98161.06;7390193;19;19915;-85
2023/03/27 06:31:10;;;;;;;8.15;2.75;;;;;;;3.48;74.96;98174.03;7400618;19;19967;-83
2023/03/27 06:33:58;;;;;;;4.30;2.42;;;;;;;3.47;74.91;98176.75;7400283;19;20253;-80
2023/03/27 06:36:35;;;;;;;5.85;2.40;;;;;;;3.41;74.83;98191.13;7386169;19;19922;-83
2023/03/27 06:39:04;;;;;;;6.72;2.85;;;;;;;3.44;74.85;98208.38;7395818;19;19919;-85
2023/03/27 06:41:32;;;;;;;3.47;2.20;;;;;;;3.46;75.23;98206.50;7387100;19;19918;-83
2023/03/27 06:44:16;;;;;;;3.45;2.38;;;;;;;3.38;73.95;98206.22;7392399;19;19911;-82
2023/03/27 06:47:06;;;;;;;5.93;2.35;;;;;;;3.45;74.41;98217.88;7400837;19;19933;-86
2023/03/27 06:49:56;;;;;;;4.63;2.17;;;;;;;3.73;74.93;98219.25;7397455;19;19929;-84
2023/03/27 06:52:23;;;;;;;14.73;2.95;;;;;;;3.94;74.65;98225.47;7389245;19;19938;-84
2023/03/27 06:54:55;;;;;;;3.15;2.30;;;;;;;3.80;73.55;98230.09;7389683;19;20276;-86
2023/03/27 06:57:22;;;;;;;3.85;2.17;;;;;;;3.75;74.13;98238.31;7389355;19;19919;-85
2023/03/27 06:59:54;;;;;;;6.85;2.72;;;;;;;3.63;73.17;98242.66;7389706;19;19927;-82
2023/03/27 07:02:40;;;;;;;5.28;3.22;;;;;;;3.49;72.84;98248.94;7373532;19;21334;-85
2023/03/27 07:05:28;;;;;;;5.95;2.22;;;;;;;3.35;72.40;98259.59;7383253;19;19911;-82
2023/03/27 07:07:55;;;;;;;5.95;1.90;;;;;;;3.56;72.71;98267.63;7388625;19;19926;-86
2023/03/27 07:10:26;;;;;;;3.72;3.40;;;;;;;3.40;71.28;98260.09;7379968;19;20697;-82
2023/03/27 07:12:54;;;;;;;5.50;2.13;;;;;;;3.66;72.90;98273.00;7385690;19;19966;-85
2023/03/27 07:15:23;;;;;;;2.00;1.58;;;;;;;3.77;70.92;98270.41;7386544;19;19921;-85
2023/03/27 07:17:53;;;;;;;4.70;2.30;;;;;;;3.80;72.19;98285.06;7390436;19;20273;-82
2023/03/27 07:20:19;;;;;;;6.18;1.80;;;;;;;3.91;71.82;98277.22;7392926;19;19922;-86
2023/03/27 07:22:47;;;;;;;3.50;1.60;;;;;;;4.18;71.65;98284.75;7399725;19;19914;-86
2023/03/27 07:25:36;;;;;;;9.63;2.97;;;;;;;4.06;71.30;98293.56;7390006;19;19978;-84
2023/03/27 07:28:09;;;;;;;4.63;1.85;;;;;;;3.94;70.82;98301.38;7388744;19;19929;-83
2023/03/27 07:30:37;;;;;;;4.32;3.08;;;;;;;3.84;70.59;98304.78;7385571;19;20385;-83
2023/03/27 07:33:06;;;;;;;3.92;1.83;;;;;;;4.10;70.32;98300.22;7385242;19;20021;-83
2023/03/27 07:35:32;;;;;;;4.93;1.30;;;;;;;4.11;69.37;98299.28;7376800;19;19914;-82
2023/03/27 07:38:22;;;;;;;4.18;3.03;;;;;;;4.42;70.54;98310.84;7385335;19;19939;-83
2023/03/27 07:41:18;;;;;;;7.05;2.78;;;;;;;4.43;69.53;98315.13;7385677;19;19942;-84
2023/03/27 07:43:57;;;;;;;2.70;2.42;;;;;;;4.83;71.03;98309.41;7387426;19;20683;-79
2023/03/27 07:46:29;;;;;;;2.88;1.83;;;;;;;4.92;68.78;98316.53;7380709;19;19926;-85
2023/03/27 07:49:00;;;;;;;6.15;1.75;;;;;;;4.45;68.87;98315.84;7388099;19;19922;-83
2023/03/27 07:51:27;;;;;;;2.20;1.42;;;;;;;4.70;68.95;98322.63;7381949;19;20353;-81
2023/03/27 07:53:57;;;;;;;3.92;1.80;;;;;;;4.34;68.01;98321.91;7391443;19;19986;-84
2023/03/27 07:56:32;;;;;;;3.65;1.85;;;;;;;4.45;69.04;98333.34;7384890;19;19913;-84
2023/03/27 07:59:21;;;;;;;6.03;2.53;;;;;;;4.33;68.34;98338.56;7389162;19;19928;-84
2023/03/27 08:01:49;;;;;;;6.30;2.38;;;;;;;4.39;68.22;98343.34;7381128;19;19915;-83
2023/03/27 08:04:18;;;;;;;4.13;1.80;;;;;;;4.23;67.96;98355.09;7393081;19;20378;-82
2023/03/27 08:06:59;;;;;;;6.18;2.35;;;;;;;4.16;69.05;98355.59;7385158;19;20363;-79
2023/03/27 08:09:27;;;;;;;7.00;1.90;;;;;;;4.05;68.54;98365.19;7381511;19;19923;-82
2023/03/27 08:11:55;;;;;;;2.15;1.63;;;;;;;4.29;69.66;98367.72;7390007;19;19919;-83
2023/03/27 08:14:25;;;;;;;8.30;1.77;;;;;;;4.26;68.73;98368.78;7387695;19;20252;-82
2023/03/27 08:16:54;;;;;;;4.47;1.98;;;;;;;4.23;67.53;98376.88;7390753;19;19918;-84
2023/03/27 08:19:38;;;;;;;2.83;2.63;;;;;;;4.46;68.11;98377.75;7384028;19;19926;-83
2023/03/27 08:22:05;;;;;;;3.30;1.65;;;;;;;4.47;66.94;98379.41;7392625;19;19943;-82
2023/03/27 08:24:45;;;;;;;6.00;2.28;;;;;;;4.53;67.46;98391.22;7383560;19;20260;-83
2023/03/27 08:27:21;;;;;;;2.00;1.58;;;;;;;5.08;67.11;98394.81;7388469;19;19986;-83
2023/03/27 08:29:48;;;;;;;3.03;1.65;;;;;;;5.24;64.86;98397.09;7384903;19;19938;-83
2023/03/27 08:32:16;;;;;;;3.30;2.30;;;;;;;5.30;67.66;98401.81;7388022;19;19927;-81
2023/03/27 08:34:44;;;;;;;3.42;1.40;;;;;;;5.36;66.04;98396.09;7384557;19;19919;-82
2023/03/27 08:37:17;;;;;;;2.92;1.95;;;;;;;5.73;65.53;98399.19;7386594;19;19919;-83
2023/03/27 08:40:12;;;;;;;6.07;2.15;;;;;;;6.19;63.01;98401.66;7398396;19;19922;-83
2023/03/27 08:42:41;;;;;;;3.22;2.10;;;;;;;6.10;63.86;98404.09;7385391;19;19922;-85
2023/03/27 08:45:49;;;;;;;5.03;1.30;;;;;;;6.00;62.52;98413.69;7395886;19;20002;-83
2023/03/27 08:48:35;;;;;;;2.35;1.33;;;;;;;6.02;62.57;98417.03;7395587;19;19914;-82
2023/03/27 08:51:08;;;;;;;3.13;1.83;;;;;;;5.90;62.05;98418.84;7391077;19;19939;-82
2023/03/27 08:53:43;;;;;;;4.53;1.88;;;;;;;5.95;63.27;98421.13;7384693;19;20389;-84
2023/03/27 08:56:15;;;;;;;4.20;1.35;;;;;;;5.69;63.36;98425.84;7386489;19;20311;-85
2023/03/27 08:58:44;;;;;;;3.33;2.05;;;;;;;5.68;64.77;98434.66;7382639;19;19918;-85
2023/03/27 09:01:25;;;;;;;5.50;2.83;;;;;;;5.80;64.85;98430.22;7386629;19;19947;-82
2023/03/27 09:04:28;;;;;;;3.50;1.90;;;;;;;5.52;63.90;98432.44;7381253;19;19973;-84
2023/03/27 09:07:18;;;;;;;4.00;1.48;;;;;;;5.79;64.22;98447.75;7383805;19;19921;-86
2023/03/27 09:10:12;;;;;;;5.65;2.35;;;;;;;5.79;63.60;98454.78;7386637;19;19986;-83
2023/03/27 09:12:47;;;;;;;2.47;1.67;;;;;;;6.31;62.13;98445.31;7379638;19;19918;-85
2023/03/27 09:15:20;;;;;;;7.03;2.38;;;;;;;6.45;61.73;98465.19;7380999;19;19932;-86
2023/03/27 09:18:05;;;;;;;4.40;1.70;;;;;;;6.32;60.43;98462.78;7382449;19;19915;-82
2023/03/27 09:20:39;;;;;;;4.55;1.95;;;;;;;6.26;62.62;98468.50;7382321;19;19922;-84
2023/03/27 09:23:17;;;;;;;1.77;1.42;;;;;;;6.29;61.63;98463.00;7388004;19;19915;-84
2023/03/27 09:26:11;;;;;;;3.58;1.60;;;;;;;6.94;62.90;98463.72;7395906;19;20319;-84
2023/03/27 09:29:18;;;;;;;2.88;1.25;;;;;;;7.28;58.39;98464.28;7392288;19;19949;-83
2023/03/27 09:31:53;;;;;;;2.22;1.23;;;;;;;7.07;60.52;98471.38;7385910;19;19939;-82
2023/03/27 09:34:25;;;;;;;4.00;1.42;;;;;;;7.00;60.85;98478.97;7390616;19;20008;-81
2023/03/27 09:36:53;;;;;;;4.63;1.98;;;;;;;7.15;59.37;98471.56;7381678;19;20318;-84
2023/03/27 09:39:26;;;;;;;2.95;1.30;;;;;;;7.28;60.37;98482.69;7388582;19;19910;-84
2023/03/27 09:42:15;;;;;;;5.93;2.13;;;;;;;7.17;59.31;98483.63;7394561;19;19923;-84
2023/03/27 09:44:47;;;;;;;2.65;1.60;;;;;;;6.97;59.45;98489.75;7385868;19;19918;-84
2023/03/27 09:47:23;;;;;;;4.50;1.77;;;;;;;6.77;58.30;98496.69;7388971;19;20309;-82
2023/03/27 09:49:57;;;;;;;6.57;1.98;;;;;;;6.96;60.18;98485.47;7388117;19;19977;-83
2023/03/27 09:52:40;;;;;;;4.80;1.45;;;;;;;7.06;61.87;98496.88;7383258;19;19934;-83
2023/03/27 09:55:33;;;;;;;2.58;1.30;;;;;;;7.22;59.25;98504.28;7388649;19;19999;-81
2023/03/27 09:58:26;;;;;;;1.52;1.10;;;;;;;7.68;60.28;98510.81;7392819;19;19919;-81
2023/03/27 10:01:18;;;;;;;3.30;1.90;;;;;;;7.56;56.94;98509.28;7385409;19;19962;-83
2023/03/27 10:03:52;;;;;;;3.47;1.90;;;;;;;7.38;58.09;98514.34;7381418;19;19946;-82
2023/03/27 10:06:45;;;;;;;2.75;1.25;;;;;;;6.68;57.34;98516.69;7384597;19;19949;-83
2023/03/27 10:09:26;;;;;;;6.38;1.38;;;;;;;6.84;59.50;98521.50;7386717;19;19923;-85
2023/03/27 10:12:28;;;;;;;2.33;1.20;;;;;;;6.97;59.13;98516.88;7385177;19;19915;-84
2023/03/27 10:14:55;;;;;;;5.28;1.55;;;;;;;7.16;56.17;98525.84;7386569;19;19982;-82
2023/03/27 10:17:36;;;;;;;3.00;0.93;;;;;;;7.22;56.37;98525.34;7391137;19;19926;-82
2023/03/27 10:20:16;;;;;;;4.78;2.28;;;;;;;7.43;54.81;98530.56;7382416;19;19924;-81
2023/03/27 10:22:58;;;;;;;7.55;1.83;;;;;;;7.74;55.62;98525.25;7378555;19;19922;-83
2023/03/27 10:25:33;;;;;;;3.20;1.77;;;;;;;7.71;52.60;98526.34;7384947;19;19919;-84
2023/03/27 10:28:26;;;;;;;5.60;1.55;;;;;;;8.02;52.05;98519.22;7388031;19;20382;-83
2023/03/27 10:31:29;;;;;;;3.95;0.93;;;;;;;8.01;52.45;98537.81;7382630;19;19919;-83
2023/03/27 10:34:28;;;;;;;4.18;1.42;;;;;;;8.31;52.71;98535.06;7388665;19;19907;-79
2023/03/27 10:37:33;;;;;;;3.10;1.33;;;;;;;8.12;50.38;98538.53;7386616;19;19923;-85
2023/03/27 10:40:32;;;;;;;3.03;1.60;;;;;;;7.38;52.11;98541.47;7383597;19;20303;-84
2023/03/27 10:43:10;;;;;;;1.92;1.27;;;;;;;7.57;50.53;98539.91;7384974;19;19918;-82
2023/03/27 10:45:50;;;;;;;3.42;1.10;;;;;;;7.99;51.07;98539.75;7380955;19;19921;-84
2023/03/27 10:48:46;;;;;;;2.67;0.98;;;;;;;8.33;50.33;98546.31;7396089;19;20001;-85
2023/03/27 10:51:26;;;;;;;3.00;1.65;;;;;;;8.44;50.75;98544.56;7387972;19;19939;-84
2023/03/27 10:54:16;;;;;;;4.75;1.90;;;;;;;8.91;48.34;98542.06;7382333;19;19914;-80
2023/03/27 10:57:01;;;;;;;1.33;0.80;;;;;;;8.99;45.74;98555.38;7374957;19;19925;-84
2023/03/27 10:59:44;;;;;;;2.15;1.05;;;;;;;8.98;46.53;98553.72;7379099;19;19919;-82
2023/03/27 11:02:24;;;;;;;3.45;1.10;;;;;;;8.62;47.26;98552.63;7382676;19;20388;-82
2023/03/27 11:04:59;;;;;;;3.15;1.35;;;;;;;8.57;45.83;98553.03;7380570;19;19939;-78
2023/03/27 11:07:32;;;;;;;2.15;1.10;;;;;;;8.70;44.99;98550.13;7382271;19;20467;-83
2023/03/27 11:10:16;;;;;;;5.85;1.77;;;;;;;8.88;43.56;98552.91;7379160;19;20014;-84
2023/03/27 11:12:55;;;;;;;2.53;1.58;;;;;;;9.34;45.62;98546.81;7374643;19;19925;-84
2023/03/27 11:15:32;;;;;;;4.30;1.50;;;;;;;9.97;46.96;98546.13;7383723;19;19915;-82
2023/03/27 11:18:07;;;;;;;4.43;1.35;;;;;;;9.15;46.17;98555.59;7380457;19;19923;-80
2023/03/27 11:20:50;;;;;;;4.20;1.35;;;;;;;8.44;48.34;98565.66;7383718;19;20333;-82
2023/03/27 11:23:46;;;;;;;1.98;1.52;;;;;;;8.35;49.64;98562.84;7393393;19;19914;-81
2023/03/27 11:26:25;;;;;;;4.10;1.33;;;;;;;9.89;46.92;98564.53;7400775;19;20310;-85
2023/03/27 11:29:20;;;;;;;2.83;1.30;;;;;;;11.39;43.69;98562.97;7400508;19;19915;-84
2023/03/27 11:31:51;;;;;;;3.72;1.20;;;;;;;10.72;42.03;98567.94;7392157;19;19926;-81
2023/03/27 11:35:01;;;;;;;3.45;0.82;;;;;;;11.26;42.15;98574.97;7399125;19;19921;-82
2023/03/27 11:37:53;;;;;;;2.83;1.48;;;;;;;11.62;42.28;98578.34;7386691;19;19921;-82
2023/03/27 11:40:29;;;;;;;3.33;0.90;;;;;;;11.64;41.62;98569.25;7391524;19;19939;-83
2023/03/27 11:43:00;;;;;;;3.63;0.90;;;;;;;11.78;41.81;98572.28;7382474;19;20387;-81
2023/03/27 11:45:59;;;;;;;3.97;1.25;;;;;;;11.94;40.05;98574.22;7388101;19;20336;-81
2023/03/27 11:48:46;;;;;;;4.47;1.73;;;;;;;11.28;41.05;98570.34;7389485;19;19927;-81
2023/03/27 11:51:41;;;;;;;4.35;1.40;;;;;;;10.79;41.00;98575.25;7395032;19;19968;-81
2023/03/27 11:54:22;;;;;;;2.83;1.70;;;;;;;10.31;42.08;98580.75;7394828;19;19918;-81
2023/03/27 11:57:00;;;;;;;2.08;1.08;;;;;;;10.32;41.14;98578.91;7387068;19;19943;-80
2023/03/27 11:59:58;;;;;;;3.13;1.33;;;;;;;9.54;41.72;98578.44;7387216;19;19936;-78
2023/03/27 12:02:40;;;;;;;4.65;1.58;;;;;;;8.80;44.45;98579.97;7389409;19;20245;-79
2023/03/27 12:05:35;;;;;;;3.58;0.77;;;;;;;8.83;43.99;98582.31;7393621;19;20356;-83
2023/03/27 12:08:07;;;;;;;3.97;1.30;;;;;;;8.27;44.69;98596.97;7387397;19;19929;-83
2023/03/27 12:10:37;;;;;;;3.20;1.13;;;;;;;8.28;45.15;98587.25;7395612;19;20349;-82
2023/03/27 12:13:21;;;;;;;4.97;1.88;;;;;;;8.48;46.09;98594.25;7389595;19;19920;-83
2023/03/27 12:16:23;;;;;;;2.58;1.35;;;;;;;8.66;45.60;98590.91;7387453;19;21111;-82
2023/03/27 12:19:19;;;;;;;3.28;1.02;;;;;;;8.46;45.04;98587.44;7388169;19;19915;-83
2023/03/27 12:22:42;;;;;;;2.50;1.02;;;;;;;8.24;44.44;98597.25;7393517;19;19957;-80
2023/03/27 12:25:51;;;;;;;4.30;1.40;;;;;;;7.60;46.53;98592.28;7391696;19;19939;-80
2023/03/27 12:28:55;;;;;;;4.00;1.35;;;;;;;8.13;48.04;98586.78;7393979;19;19952;-81
2023/03/27 12:31:44;;;;;;;3.00;1.20;;;;;;;8.35;47.47;98580.47;7393049;19;19918;-81